This is the latest recevied weather packets stored in our database for station/object KR0L-13. If no packets are shown the sender has not sent any weather packets the latest 10 day(s).
| Time | Temp. | Humidity | Pressure | Rain* | Wind** | Luminosity | Snow |
|---|---|---|---|---|---|---|---|
| 1787417420 | 23.33° C | 82% | 1018.8 hPa | 0 mm | - | - | - |
| 1787416820 | 23.33° C | 83% | 1019.5 hPa | 0 mm | - | - | - |
| 1787416220 | 23.33° C | 84% | 1019.9 hPa | 0 mm | - | - | - |
| 1787415620 | 22.78° C | 88% | 1020.5 hPa | 0 mm | - | - | - |
| 1787415020 | 22.22° C | 89% | 1020.7 hPa | 0 mm | - | - | - |
| 1787414420 | 22.22° C | 91% | 1020.8 hPa | 0 mm | - | - | - |
| 1787413820 | 21.67° C | 93% | 1021.1 hPa | 0 mm | - | - | - |
| 1787413220 | 21.67° C | 94% | 1021.3 hPa | 0 mm | - | - | - |
| 1787412620 | 21.11° C | 95% | 1021.6 hPa | 0.51 mm | - | - | - |
| 1787412020 | 21.11° C | 95% | 1021.1 hPa | 2.29 mm | - | - | - |
| 1787411422 | 21.11° C | 96% | 1020.9 hPa | 2.29 mm | - | - | - |
| 1787410822 | 21.11° C | 96% | 1021.2 hPa | 2.29 mm | - | - | - |
| 1787410222 | 21.11° C | 95% | 1021.4 hPa | 2.29 mm | - | - | - |
| 1787409622 | 21.11° C | 94% | 1021.3 hPa | 2.29 mm | - | - | - |
| 1787409022 | 21.67° C | 91% | 1020.9 hPa | 1.78 mm | - | - | - |
| 1787408422 | 22.78° C | 83% | 1021.2 hPa | 0 mm | - | - | - |
| 1787407822 | 23.33° C | 84% | 1020.5 hPa | 0 mm | - | - | - |
| 1787407222 | 23.33° C | 84% | 1019 hPa | 0 mm | - | - | - |
| 1787406623 | 23.33° C | 85% | 1018.5 hPa | 0 mm | - | - | - |
| 1787406022 | 22.78° C | 86% | 1018.3 hPa | 0 mm | - | - | - |
| 1787405422 | 22.78° C | 88% | 1018.3 hPa | 0 mm | - | - | - |
| 1787404822 | 22.78° C | 89% | 1018.8 hPa | 0 mm | - | - | - |
| 1787404222 | 22.78° C | 89% | 1018.9 hPa | 0 mm | - | - | - |
| 1787403622 | 22.78° C | 87% | 1018.9 hPa | 0 mm | - | - | - |
| 1787403022 | 22.78° C | 86% | 1019.1 hPa | 0 mm | - | - | - |
* Rain latest hour (hover to see other rain measurements)
** Current wind speed in m/s (hover to see current wind gust speed)